sensor_id;sensor_type;location;lat;lon;timestamp;P1;durP1;ratioP1;P2;durP2;ratioP2
46439;SDS011;32138;50.966;6.968;2023-05-10T00:00:41;6.68;;;6.07;;
46439;SDS011;32138;50.966;6.968;2023-05-10T00:01:42;6.50;;;5.82;;
46439;SDS011;32138;50.966;6.968;2023-05-10T00:02:42;9.02;;;6.13;;
46439;SDS011;32138;50.966;6.968;2023-05-10T00:03:43;6.95;;;6.35;;
46439;SDS011;32138;50.966;6.968;2023-05-10T00:04:44;7.05;;;6.45;;
46439;SDS011;32138;50.966;6.968;2023-05-10T00:05:45;5.72;;;5.20;;
46439;SDS011;32138;50.966;6.968;2023-05-10T00:06:46;8.25;;;7.53;;
46439;SDS011;32138;50.966;6.968;2023-05-10T00:07:46;7.75;;;6.95;;
46439;SDS011;32138;50.966;6.968;2023-05-10T00:08:47;6.65;;;5.93;;
46439;SDS011;32138;50.966;6.968;2023-05-10T00:09:48;8.82;;;8.02;;
46439;SDS011;32138;50.966;6.968;2023-05-10T00:10:49;8.25;;;7.55;;
46439;SDS011;32138;50.966;6.968;2023-05-10T00:11:50;6.68;;;6.07;;
46439;SDS011;32138;50.966;6.968;2023-05-10T00:12:50;6.60;;;6.00;;
46439;SDS011;32138;50.966;6.968;2023-05-10T00:13:51;6.57;;;5.75;;
46439;SDS011;32138;50.966;6.968;2023-05-10T00:14:52;6.22;;;5.63;;
46439;SDS011;32138;50.966;6.968;2023-05-10T00:15:53;7.47;;;6.78;;
46439;SDS011;32138;50.966;6.968;2023-05-10T00:16:53;6.53;;;5.88;;
46439;SDS011;32138;50.966;6.968;2023-05-10T00:17:54;7.30;;;6.60;;
46439;SDS011;32138;50.966;6.968;2023-05-10T00:18:55;7.88;;;7.22;;
46439;SDS011;32138;50.966;6.968;2023-05-10T00:19:55;8.10;;;7.28;;
46439;SDS011;32138;50.966;6.968;2023-05-10T00:20:56;8.63;;;7.72;;
46439;SDS011;32138;50.966;6.968;2023-05-10T00:21:57;8.45;;;7.60;;
46439;SDS011;32138;50.966;6.968;2023-05-10T00:22:58;71.18;;;64.22;;
46439;SDS011;32138;50.966;6.968;2023-05-10T00:23:59;73.60;;;66.30;;
46439;SDS011;32138;50.966;6.968;2023-05-10T00:25:00;39.47;;;35.65;;
46439;SDS011;32138;50.966;6.968;2023-05-10T00:26:00;30.52;;;27.58;;
46439;SDS011;32138;50.966;6.968;2023-05-10T00:27:01;16.52;;;14.95;;
46439;SDS011;32138;50.966;6.968;2023-05-10T00:28:04;14.23;;;12.82;;
46439;SDS011;32138;50.966;6.968;2023-05-10T00:29:04;11.20;;;10.10;;
46439;SDS011;32138;50.966;6.968;2023-05-10T00:30:05;10.35;;;9.35;;
46439;SDS011;32138;50.966;6.968;2023-05-10T00:31:07;9.13;;;8.32;;
46439;SDS011;32138;50.966;6.968;2023-05-10T00:32:08;9.68;;;8.77;;
46439;SDS011;32138;50.966;6.968;2023-05-10T00:33:08;10.20;;;9.30;;
46439;SDS011;32138;50.966;6.968;2023-05-10T00:34:09;10.55;;;9.57;;
46439;SDS011;32138;50.966;6.968;2023-05-10T00:35:10;12.05;;;10.85;;
46439;SDS011;32138;50.966;6.968;2023-05-10T00:36:11;10.70;;;9.70;;
46439;SDS011;32138;50.966;6.968;2023-05-10T00:37:12;10.48;;;9.48;;
46439;SDS011;32138;50.966;6.968;2023-05-10T00:38:13;10.70;;;9.20;;
46439;SDS011;32138;50.966;6.968;2023-05-10T00:39:14;10.35;;;9.45;;
46439;SDS011;32138;50.966;6.968;2023-05-10T00:40:15;11.30;;;10.20;;
46439;SDS011;32138;50.966;6.968;2023-05-10T00:41:15;10.75;;;9.75;;
46439;SDS011;32138;50.966;6.968;2023-05-10T00:42:16;14.77;;;11.07;;
46439;SDS011;32138;50.966;6.968;2023-05-10T00:43:17;13.07;;;11.85;;
46439;SDS011;32138;50.966;6.968;2023-05-10T00:44:18;11.88;;;10.38;;
46439;SDS011;32138;50.966;6.968;2023-05-10T00:45:18;11.85;;;10.77;;
46439;SDS011;32138;50.966;6.968;2023-05-10T00:46:19;12.50;;;11.23;;
46439;SDS011;32138;50.966;6.968;2023-05-10T00:47:21;10.73;;;9.63;;
46439;SDS011;32138;50.966;6.968;2023-05-10T00:48:22;11.27;;;10.27;;
46439;SDS011;32138;50.966;6.968;2023-05-10T00:49:23;13.40;;;12.18;;
46439;SDS011;32138;50.966;6.968;2023-05-10T00:50:24;14.68;;;13.38;;
46439;SDS011;32138;50.966;6.968;2023-05-10T00:51:25;11.23;;;10.18;;
46439;SDS011;32138;50.966;6.968;2023-05-10T00:52:27;11.73;;;10.63;;
46439;SDS011;32138;50.966;6.968;2023-05-10T00:53:30;12.40;;;11.15;;
46439;SDS011;32138;50.966;6.968;2023-05-10T00:54:32;12.00;;;10.90;;
46439;SDS011;32138;50.966;6.968;2023-05-10T00:55:33;14.52;;;12.63;;
46439;SDS011;32138;50.966;6.968;2023-05-10T00:56:34;14.43;;;13.13;;
46439;SDS011;32138;50.966;6.968;2023-05-10T00:57:36;14.32;;;12.82;;
46439;SDS011;32138;50.966;6.968;2023-05-10T00:58:37;13.63;;;11.70;;
46439;SDS011;32138;50.966;6.968;2023-05-10T00:59:39;11.52;;;10.48;;
46439;SDS011;32138;50.966;6.968;2023-05-10T01:00:41;13.48;;;12.07;;
46439;SDS011;32138;50.966;6.968;2023-05-10T01:01:45;15.95;;;14.45;;
46439;SDS011;32138;50.966;6.968;2023-05-10T01:02:46;12.48;;;11.38;;
46439;SDS011;32138;50.966;6.968;2023-05-10T01:03:48;12.85;;;11.68;;
46439;SDS011;32138;50.966;6.968;2023-05-10T01:04:48;11.40;;;10.25;;
46439;SDS011;32138;50.966;6.968;2023-05-10T01:05:49;12.52;;;11.43;;
46439;SDS011;32138;50.966;6.968;2023-05-10T01:06:50;13.30;;;12.00;;
46439;SDS011;32138;50.966;6.968;2023-05-10T01:07:52;12.00;;;10.88;;
46439;SDS011;32138;50.966;6.968;2023-05-10T01:08:53;13.82;;;12.63;;
46439;SDS011;32138;50.966;6.968;2023-05-10T01:09:54;13.50;;;12.13;;
46439;SDS011;32138;50.966;6.968;2023-05-10T01:10:56;12.63;;;11.40;;
46439;SDS011;32138;50.966;6.968;2023-05-10T01:11:57;12.45;;;11.23;;
46439;SDS011;32138;50.966;6.968;2023-05-10T01:12:59;15.98;;;12.63;;
46439;SDS011;32138;50.966;6.968;2023-05-10T01:14:00;12.13;;;10.88;;
46439;SDS011;32138;50.966;6.968;2023-05-10T01:15:02;12.15;;;10.90;;
46439;SDS011;32138;50.966;6.968;2023-05-10T01:16:06;13.13;;;11.93;;
46439;SDS011;32138;50.966;6.968;2023-05-10T01:17:06;13.90;;;12.70;;
46439;SDS011;32138;50.966;6.968;2023-05-10T01:18:09;13.15;;;11.85;;
46439;SDS011;32138;50.966;6.968;2023-05-10T01:19:17;13.65;;;12.35;;
46439;SDS011;32138;50.966;6.968;2023-05-10T01:20:24;13.85;;;12.45;;
46439;SDS011;32138;50.966;6.968;2023-05-10T01:33:15;13.52;;;12.13;;
46439;SDS011;32138;50.966;6.968;2023-05-10T01:34:51;13.05;;;11.75;;
46439;SDS011;32138;50.966;6.968;2023-05-10T01:37:37;13.82;;;12.52;;
46439;SDS011;32138;50.966;6.968;2023-05-10T01:38:49;12.80;;;11.50;;
46439;SDS011;32138;50.966;6.968;2023-05-10T01:40:39;14.10;;;12.60;;
46439;SDS011;32138;50.966;6.968;2023-05-10T01:42:09;12.35;;;11.15;;
46439;SDS011;32138;50.966;6.968;2023-05-10T01:43:22;12.80;;;11.50;;
46439;SDS011;32138;50.966;6.968;2023-05-10T01:44:35;12.55;;;10.85;;
46439;SDS011;32138;50.966;6.968;2023-05-10T01:45:41;13.50;;;12.20;;
46439;SDS011;32138;50.966;6.968;2023-05-10T01:47:04;13.45;;;12.05;;
46439;SDS011;32138;50.966;6.968;2023-05-10T01:48:32;12.30;;;11.07;;
46439;SDS011;32138;50.966;6.968;2023-05-10T01:49:35;12.13;;;10.82;;
46439;SDS011;32138;50.966;6.968;2023-05-10T01:51:47;12.23;;;10.93;;
46439;SDS011;32138;50.966;6.968;2023-05-10T01:52:55;12.57;;;11.38;;
46439;SDS011;32138;50.966;6.968;2023-05-10T01:54:00;12.70;;;11.38;;
46439;SDS011;32138;50.966;6.968;2023-05-10T01:55:04;12.73;;;11.48;;
46439;SDS011;32138;50.966;6.968;2023-05-10T01:56:08;13.18;;;11.40;;
46439;SDS011;32138;50.966;6.968;2023-05-10T01:57:11;10.98;;;9.98;;
46439;SDS011;32138;50.966;6.968;2023-05-10T01:58:31;10.88;;;9.85;;
46439;SDS011;32138;50.966;6.968;2023-05-10T01:59:35;10.35;;;9.32;;
46439;SDS011;32138;50.966;6.968;2023-05-10T02:00:44;10.75;;;9.63;;
46439;SDS011;32138;50.966;6.968;2023-05-10T02:01:46;10.25;;;9.25;;
46439;SDS011;32138;50.966;6.968;2023-05-10T02:02:48;9.07;;;8.18;;
46439;SDS011;32138;50.966;6.968;2023-05-10T02:03:50;9.63;;;8.25;;
46439;SDS011;32138;50.966;6.968;2023-05-10T02:04:54;8.32;;;7.45;;
46439;SDS011;32138;50.966;6.968;2023-05-10T02:05:55;11.05;;;8.85;;
46439;SDS011;32138;50.966;6.968;2023-05-10T02:06:57;9.23;;;7.43;;
46439;SDS011;32138;50.966;6.968;2023-05-10T02:07:58;9.65;;;7.85;;
46439;SDS011;32138;50.966;6.968;2023-05-10T02:09:01;7.78;;;6.95;;
46439;SDS011;32138;50.966;6.968;2023-05-10T02:10:06;9.27;;;8.23;;
46439;SDS011;32138;50.966;6.968;2023-05-10T02:11:09;6.90;;;6.20;;
46439;SDS011;32138;50.966;6.968;2023-05-10T02:12:13;8.93;;;7.82;;
46439;SDS011;32138;50.966;6.968;2023-05-10T02:13:16;8.82;;;7.45;;
46439;SDS011;32138;50.966;6.968;2023-05-10T02:14:19;8.40;;;7.50;;
46439;SDS011;32138;50.966;6.968;2023-05-10T02:15:22;9.00;;;7.00;;
46439;SDS011;32138;50.966;6.968;2023-05-10T02:16:24;10.90;;;7.68;;
46439;SDS011;32138;50.966;6.968;2023-05-10T02:17:27;9.30;;;7.70;;
46439;SDS011;32138;50.966;6.968;2023-05-10T02:18:30;9.45;;;6.75;;
46439;SDS011;32138;50.966;6.968;2023-05-10T02:19:34;9.90;;;7.53;;
46439;SDS011;32138;50.966;6.968;2023-05-10T02:20:38;9.25;;;6.63;;
46439;SDS011;32138;50.966;6.968;2023-05-10T02:21:39;9.40;;;7.38;;
46439;SDS011;32138;50.966;6.968;2023-05-10T02:22:41;10.48;;;7.53;;
46439;SDS011;32138;50.966;6.968;2023-05-10T02:23:45;8.90;;;6.82;;
46439;SDS011;32138;50.966;6.968;2023-05-10T02:24:46;9.95;;;7.82;;
46439;SDS011;32138;50.966;6.968;2023-05-10T02:25:48;11.93;;;7.70;;
46439;SDS011;32138;50.966;6.968;2023-05-10T02:26:51;9.60;;;6.72;;
46439;SDS011;32138;50.966;6.968;2023-05-10T02:27:56;8.68;;;6.88;;
46439;SDS011;32138;50.966;6.968;2023-05-10T02:28:58;8.07;;;5.85;;
46439;SDS011;32138;50.966;6.968;2023-05-10T02:30:00;8.80;;;5.30;;
46439;SDS011;32138;50.966;6.968;2023-05-10T02:31:01;6.68;;;5.00;;
46439;SDS011;32138;50.966;6.968;2023-05-10T02:32:02;5.88;;;4.95;;
46439;SDS011;32138;50.966;6.968;2023-05-10T02:33:04;7.75;;;5.22;;
46439;SDS011;32138;50.966;6.968;2023-05-10T02:34:06;7.30;;;5.10;;
46439;SDS011;32138;50.966;6.968;2023-05-10T02:35:08;7.20;;;5.10;;
46439;SDS011;32138;50.966;6.968;2023-05-10T02:36:10;7.18;;;5.25;;
46439;SDS011;32138;50.966;6.968;2023-05-10T02:37:13;8.60;;;4.72;;
46439;SDS011;32138;50.966;6.968;2023-05-10T02:38:15;6.55;;;4.72;;
46439;SDS011;32138;50.966;6.968;2023-05-10T02:39:19;6.00;;;4.60;;
46439;SDS011;32138;50.966;6.968;2023-05-10T02:40:21;6.45;;;4.45;;
46439;SDS011;32138;50.966;6.968;2023-05-10T02:41:24;6.43;;;4.70;;
46439;SDS011;32138;50.966;6.968;2023-05-10T02:42:26;7.20;;;5.38;;
46439;SDS011;32138;50.966;6.968;2023-05-10T02:43:29;7.45;;;5.03;;
46439;SDS011;32138;50.966;6.968;2023-05-10T02:44:33;6.95;;;4.70;;
46439;SDS011;32138;50.966;6.968;2023-05-10T02:45:36;6.50;;;5.75;;
46439;SDS011;32138;50.966;6.968;2023-05-10T02:46:38;7.18;;;5.40;;
46439;SDS011;32138;50.966;6.968;2023-05-10T02:47:39;5.68;;;5.00;;
46439;SDS011;32138;50.966;6.968;2023-05-10T02:48:40;8.35;;;6.00;;
46439;SDS011;32138;50.966;6.968;2023-05-10T02:49:41;8.10;;;5.93;;
46439;SDS011;32138;50.966;6.968;2023-05-10T02:50:43;8.25;;;6.45;;
46439;SDS011;32138;50.966;6.968;2023-05-10T02:51:47;7.95;;;6.93;;
46439;SDS011;32138;50.966;6.968;2023-05-10T02:52:52;9.05;;;6.15;;
46439;SDS011;32138;50.966;6.968;2023-05-10T02:54:06;8.18;;;5.75;;
46439;SDS011;32138;50.966;6.968;2023-05-10T02:55:14;7.90;;;5.65;;
46439;SDS011;32138;50.966;6.968;2023-05-10T02:56:28;10.35;;;7.35;;
46439;SDS011;32138;50.966;6.968;2023-05-10T02:57:34;8.30;;;6.05;;
46439;SDS011;32138;50.966;6.968;2023-05-10T02:58:37;7.15;;;6.40;;
46439;SDS011;32138;50.966;6.968;2023-05-10T02:59:37;7.63;;;6.82;;
46439;SDS011;32138;50.966;6.968;2023-05-10T03:00:38;8.25;;;5.90;;
46439;SDS011;32138;50.966;6.968;2023-05-10T03:01:39;7.90;;;6.03;;
46439;SDS011;32138;50.966;6.968;2023-05-10T03:02:40;7.57;;;6.15;;
46439;SDS011;32138;50.966;6.968;2023-05-10T03:03:41;7.13;;;5.10;;
46439;SDS011;32138;50.966;6.968;2023-05-10T03:04:42;9.25;;;5.05;;
46439;SDS011;32138;50.966;6.968;2023-05-10T03:05:43;7.43;;;5.10;;
46439;SDS011;32138;50.966;6.968;2023-05-10T03:06:43;5.72;;;5.10;;
46439;SDS011;32138;50.966;6.968;2023-05-10T03:07:45;7.97;;;5.93;;
46439;SDS011;32138;50.966;6.968;2023-05-10T03:08:46;7.13;;;5.35;;
46439;SDS011;32138;50.966;6.968;2023-05-10T03:09:50;6.40;;;4.85;;
46439;SDS011;32138;50.966;6.968;2023-05-10T03:10:55;5.63;;;4.72;;
46439;SDS011;32138;50.966;6.968;2023-05-10T03:16:56;7.03;;;4.50;;
46439;SDS011;32138;50.966;6.968;2023-05-10T03:18:29;9.68;;;5.53;;
46439;SDS011;32138;50.966;6.968;2023-05-10T03:20:20;6.93;;;4.88;;
46439;SDS011;32138;50.966;6.968;2023-05-10T03:21:19;8.43;;;5.13;;
46439;SDS011;32138;50.966;6.968;2023-05-10T03:22:26;8.68;;;5.45;;
46439;SDS011;32138;50.966;6.968;2023-05-10T03:23:43;6.90;;;4.95;;
46439;SDS011;32138;50.966;6.968;2023-05-10T03:25:00;6.20;;;4.75;;
46439;SDS011;32138;50.966;6.968;2023-05-10T03:26:06;7.65;;;5.70;;
46439;SDS011;32138;50.966;6.968;2023-05-10T03:27:08;8.30;;;5.32;;
46439;SDS011;32138;50.966;6.968;2023-05-10T03:28:10;5.53;;;4.72;;
46439;SDS011;32138;50.966;6.968;2023-05-10T03:29:14;6.75;;;5.13;;
46439;SDS011;32138;50.966;6.968;2023-05-10T03:30:16;7.45;;;5.50;;
46439;SDS011;32138;50.966;6.968;2023-05-10T03:31:18;6.53;;;5.82;;
46439;SDS011;32138;50.966;6.968;2023-05-10T03:32:19;6.43;;;5.43;;
46439;SDS011;32138;50.966;6.968;2023-05-10T03:33:20;7.65;;;5.35;;
46439;SDS011;32138;50.966;6.968;2023-05-10T03:34:24;7.03;;;5.65;;
46439;SDS011;32138;50.966;6.968;2023-05-10T03:35:24;6.70;;;5.63;;
46439;SDS011;32138;50.966;6.968;2023-05-10T03:36:25;7.05;;;5.05;;
46439;SDS011;32138;50.966;6.968;2023-05-10T03:37:26;10.80;;;6.65;;
46439;SDS011;32138;50.966;6.968;2023-05-10T03:38:27;7.43;;;6.25;;
46439;SDS011;32138;50.966;6.968;2023-05-10T03:39:28;7.75;;;6.95;;
46439;SDS011;32138;50.966;6.968;2023-05-10T03:40:28;8.88;;;6.05;;
46439;SDS011;32138;50.966;6.968;2023-05-10T03:41:31;8.23;;;5.82;;
46439;SDS011;32138;50.966;6.968;2023-05-10T03:42:32;9.18;;;7.47;;
46439;SDS011;32138;50.966;6.968;2023-05-10T03:43:32;8.50;;;6.75;;
46439;SDS011;32138;50.966;6.968;2023-05-10T03:44:33;9.90;;;6.63;;
46439;SDS011;32138;50.966;6.968;2023-05-10T03:45:34;8.00;;;7.20;;
46439;SDS011;32138;50.966;6.968;2023-05-10T03:46:35;9.65;;;6.63;;
46439;SDS011;32138;50.966;6.968;2023-05-10T03:47:36;8.35;;;6.70;;
46439;SDS011;32138;50.966;6.968;2023-05-10T03:48:36;11.30;;;7.72;;
46439;SDS011;32138;50.966;6.968;2023-05-10T03:49:37;10.52;;;7.18;;
46439;SDS011;32138;50.966;6.968;2023-05-10T03:50:38;9.35;;;7.07;;
46439;SDS011;32138;50.966;6.968;2023-05-10T03:51:39;7.38;;;5.85;;
46439;SDS011;32138;50.966;6.968;2023-05-10T03:52:39;7.80;;;6.95;;
46439;SDS011;32138;50.966;6.968;2023-05-10T03:53:41;9.05;;;8.13;;
46439;SDS011;32138;50.966;6.968;2023-05-10T03:54:41;10.45;;;7.50;;
46439;SDS011;32138;50.966;6.968;2023-05-10T03:55:42;8.57;;;7.53;;
46439;SDS011;32138;50.966;6.968;2023-05-10T03:56:43;9.63;;;7.45;;
46439;SDS011;32138;50.966;6.968;2023-05-10T03:57:43;9.38;;;7.55;;
46439;SDS011;32138;50.966;6.968;2023-05-10T03:58:44;10.85;;;9.60;;
46439;SDS011;32138;50.966;6.968;2023-05-10T03:59:45;10.82;;;9.35;;
46439;SDS011;32138;50.966;6.968;2023-05-10T04:00:46;11.10;;;9.25;;
46439;SDS011;32138;50.966;6.968;2023-05-10T04:01:46;11.82;;;9.38;;
46439;SDS011;32138;50.966;6.968;2023-05-10T04:02:47;10.30;;;8.68;;
46439;SDS011;32138;50.966;6.968;2023-05-10T04:03:48;10.95;;;9.32;;
46439;SDS011;32138;50.966;6.968;2023-05-10T04:04:48;11.63;;;9.35;;
46439;SDS011;32138;50.966;6.968;2023-05-10T04:05:49;10.20;;;8.77;;
46439;SDS011;32138;50.966;6.968;2023-05-10T04:07:00;26.05;;;23.50;;
46439;SDS011;32138;50.966;6.968;2023-05-10T04:08:01;83.80;;;75.65;;
46439;SDS011;32138;50.966;6.968;2023-05-10T04:09:02;43.60;;;39.13;;
46439;SDS011;32138;50.966;6.968;2023-05-10T04:10:04;27.58;;;24.77;;
46439;SDS011;32138;50.966;6.968;2023-05-10T04:11:06;18.33;;;16.63;;
46439;SDS011;32138;50.966;6.968;2023-05-10T04:12:08;15.95;;;12.48;;
46439;SDS011;32138;50.966;6.968;2023-05-10T04:13:09;17.73;;;15.93;;
46439;SDS011;32138;50.966;6.968;2023-05-10T04:14:09;15.65;;;12.90;;
46439;SDS011;32138;50.966;6.968;2023-05-10T04:15:10;15.43;;;13.93;;
46439;SDS011;32138;50.966;6.968;2023-05-10T04:16:11;16.38;;;13.48;;
46439;SDS011;32138;50.966;6.968;2023-05-10T04:17:12;13.30;;;11.85;;
46439;SDS011;32138;50.966;6.968;2023-05-10T04:18:12;14.18;;;12.77;;
46439;SDS011;32138;50.966;6.968;2023-05-10T04:19:13;12.90;;;11.60;;
46439;SDS011;32138;50.966;6.968;2023-05-10T04:20:14;14.93;;;11.38;;
46439;SDS011;32138;50.966;6.968;2023-05-10T04:21:15;13.25;;;11.05;;
46439;SDS011;32138;50.966;6.968;2023-05-10T04:22:15;13.13;;;11.23;;
46439;SDS011;32138;50.966;6.968;2023-05-10T04:23:17;15.25;;;11.98;;
46439;SDS011;32138;50.966;6.968;2023-05-10T04:24:18;15.80;;;12.40;;
46439;SDS011;32138;50.966;6.968;2023-05-10T04:25:19;15.88;;;11.15;;
46439;SDS011;32138;50.966;6.968;2023-05-10T04:26:19;16.80;;;12.50;;
46439;SDS011;32138;50.966;6.968;2023-05-10T04:27:20;22.10;;;13.82;;
46439;SDS011;32138;50.966;6.968;2023-05-10T04:28:21;29.65;;;15.63;;
46439;SDS011;32138;50.966;6.968;2023-05-10T04:29:22;22.23;;;15.73;;
46439;SDS011;32138;50.966;6.968;2023-05-10T04:30:22;26.02;;;17.05;;
46439;SDS011;32138;50.966;6.968;2023-05-10T04:31:23;29.45;;;18.90;;
46439;SDS011;32138;50.966;6.968;2023-05-10T04:32:24;24.15;;;16.17;;
46439;SDS011;32138;50.966;6.968;2023-05-10T04:33:25;20.08;;;14.90;;
46439;SDS011;32138;50.966;6.968;2023-05-10T04:34:25;17.75;;;13.82;;
46439;SDS011;32138;50.966;6.968;2023-05-10T04:35:26;17.88;;;14.43;;
46439;SDS011;32138;50.966;6.968;2023-05-10T04:36:28;19.67;;;14.65;;
46439;SDS011;32138;50.966;6.968;2023-05-10T04:37:28;19.13;;;15.00;;
46439;SDS011;32138;50.966;6.968;2023-05-10T04:38:29;15.65;;;13.95;;
46439;SDS011;32138;50.966;6.968;2023-05-10T04:39:30;21.40;;;16.13;;
46439;SDS011;32138;50.966;6.968;2023-05-10T04:40:31;14.25;;;12.68;;
46439;SDS011;32138;50.966;6.968;2023-05-10T04:41:31;14.63;;;13.07;;
46439;SDS011;32138;50.966;6.968;2023-05-10T04:42:32;19.40;;;13.55;;
46439;SDS011;32138;50.966;6.968;2023-05-10T04:43:33;18.77;;;15.40;;
46439;SDS011;32138;50.966;6.968;2023-05-10T04:44:34;15.70;;;13.98;;
46439;SDS011;32138;50.966;6.968;2023-05-10T04:45:36;14.35;;;12.85;;
46439;SDS011;32138;50.966;6.968;2023-05-10T04:46:36;22.52;;;16.40;;
46439;SDS011;32138;50.966;6.968;2023-05-10T04:47:37;21.35;;;14.90;;
46439;SDS011;32138;50.966;6.968;2023-05-10T04:48:38;20.83;;;13.32;;
46439;SDS011;32138;50.966;6.968;2023-05-10T04:49:39;16.92;;;13.50;;
46439;SDS011;32138;50.966;6.968;2023-05-10T04:50:39;17.83;;;15.63;;
46439;SDS011;32138;50.966;6.968;2023-05-10T04:51:40;15.18;;;13.57;;
46439;SDS011;32138;50.966;6.968;2023-05-10T04:52:41;19.13;;;15.80;;
46439;SDS011;32138;50.966;6.968;2023-05-10T04:53:42;18.90;;;15.48;;
46439;SDS011;32138;50.966;6.968;2023-05-10T04:54:42;18.60;;;14.38;;
46439;SDS011;32138;50.966;6.968;2023-05-10T04:55:43;17.75;;;13.50;;
46439;SDS011;32138;50.966;6.968;2023-05-10T04:56:44;18.00;;;14.23;;
46439;SDS011;32138;50.966;6.968;2023-05-10T04:57:45;15.55;;;13.90;;
46439;SDS011;32138;50.966;6.968;2023-05-10T04:58:45;17.52;;;13.10;;
46439;SDS011;32138;50.966;6.968;2023-05-10T04:59:46;18.13;;;14.05;;
46439;SDS011;32138;50.966;6.968;2023-05-10T05:00:47;15.18;;;13.38;;
46439;SDS011;32138;50.966;6.968;2023-05-10T05:01:48;22.98;;;14.93;;
46439;SDS011;32138;50.966;6.968;2023-05-10T05:02:48;18.00;;;14.23;;
46439;SDS011;32138;50.966;6.968;2023-05-10T05:03:49;17.83;;;14.57;;
46439;SDS011;32138;50.966;6.968;2023-05-10T05:04:52;15.02;;;13.35;;
46439;SDS011;32138;50.966;6.968;2023-05-10T05:05:53;17.52;;;14.98;;
46439;SDS011;32138;50.966;6.968;2023-05-10T05:06:54;17.35;;;14.20;;
46439;SDS011;32138;50.966;6.968;2023-05-10T05:07:55;21.42;;;14.30;;
46439;SDS011;32138;50.966;6.968;2023-05-10T05:08:56;18.73;;;15.13;;
46439;SDS011;32138;50.966;6.968;2023-05-10T05:09:56;26.23;;;17.33;;
46439;SDS011;32138;50.966;6.968;2023-05-10T05:10:57;16.42;;;14.63;;
46439;SDS011;32138;50.966;6.968;2023-05-10T05:11:59;18.75;;;15.10;;
46439;SDS011;32138;50.966;6.968;2023-05-10T05:13:00;18.60;;;13.27;;
46439;SDS011;32138;50.966;6.968;2023-05-10T05:14:00;19.08;;;15.63;;
46439;SDS011;32138;50.966;6.968;2023-05-10T05:15:01;17.17;;;13.77;;
46439;SDS011;32138;50.966;6.968;2023-05-10T05:16:03;17.63;;;15.10;;
46439;SDS011;32138;50.966;6.968;2023-05-10T05:17:05;19.58;;;17.17;;
46439;SDS011;32138;50.966;6.968;2023-05-10T05:18:06;20.10;;;17.23;;
46439;SDS011;32138;50.966;6.968;2023-05-10T05:19:07;20.80;;;17.25;;
46439;SDS011;32138;50.966;6.968;2023-05-10T05:20:07;15.25;;;13.70;;
46439;SDS011;32138;50.966;6.968;2023-05-10T05:21:18;19.48;;;15.18;;
46439;SDS011;32138;50.966;6.968;2023-05-10T05:22:19;16.42;;;13.23;;
46439;SDS011;32138;50.966;6.968;2023-05-10T05:23:27;18.77;;;13.77;;
46439;SDS011;32138;50.966;6.968;2023-05-10T05:24:27;17.83;;;13.98;;
46439;SDS011;32138;50.966;6.968;2023-05-10T05:25:28;17.67;;;14.25;;
46439;SDS011;32138;50.966;6.968;2023-05-10T05:26:29;16.73;;;14.50;;
46439;SDS011;32138;50.966;6.968;2023-05-10T05:27:30;21.15;;;15.40;;
46439;SDS011;32138;50.966;6.968;2023-05-10T05:28:32;21.35;;;13.90;;
46439;SDS011;32138;50.966;6.968;2023-05-10T05:29:34;20.95;;;15.38;;
46439;SDS011;32138;50.966;6.968;2023-05-10T05:30:35;15.55;;;13.88;;
46439;SDS011;32138;50.966;6.968;2023-05-10T05:31:36;17.20;;;14.48;;
46439;SDS011;32138;50.966;6.968;2023-05-10T05:32:36;16.17;;;14.27;;
46439;SDS011;32138;50.966;6.968;2023-05-10T05:33:37;16.17;;;14.48;;
46439;SDS011;32138;50.966;6.968;2023-05-10T05:34:38;17.30;;;14.40;;
46439;SDS011;32138;50.966;6.968;2023-05-10T05:35:39;17.83;;;13.30;;
46439;SDS011;32138;50.966;6.968;2023-05-10T05:36:40;16.77;;;13.10;;
46439;SDS011;32138;50.966;6.968;2023-05-10T05:37:40;17.02;;;12.75;;
46439;SDS011;32138;50.966;6.968;2023-05-10T05:38:41;16.05;;;13.23;;
46439;SDS011;32138;50.966;6.968;2023-05-10T05:39:43;15.63;;;12.88;;
46439;SDS011;32138;50.966;6.968;2023-05-10T05:40:44;17.27;;;12.98;;
46439;SDS011;32138;50.966;6.968;2023-05-10T05:41:45;17.00;;;12.50;;
46439;SDS011;32138;50.966;6.968;2023-05-10T05:42:46;15.32;;;12.00;;
46439;SDS011;32138;50.966;6.968;2023-05-10T05:43:47;16.42;;;12.20;;
46439;SDS011;32138;50.966;6.968;2023-05-10T05:44:47;14.43;;;12.50;;
46439;SDS011;32138;50.966;6.968;2023-05-10T05:45:48;20.63;;;14.25;;
46439;SDS011;32138;50.966;6.968;2023-05-10T05:46:49;13.63;;;12.23;;
46439;SDS011;32138;50.966;6.968;2023-05-10T05:47:50;17.35;;;15.32;;
46439;SDS011;32138;50.966;6.968;2023-05-10T05:48:51;66.70;;;60.03;;
46439;SDS011;32138;50.966;6.968;2023-05-10T05:49:51;104.18;;;94.13;;
46439;SDS011;32138;50.966;6.968;2023-05-10T05:50:55;65.43;;;58.22;;
46439;SDS011;32138;50.966;6.968;2023-05-10T05:51:59;36.63;;;25.52;;
46439;SDS011;32138;50.966;6.968;2023-05-10T05:53:01;24.42;;;17.35;;
46439;SDS011;32138;50.966;6.968;2023-05-10T05:54:02;20.45;;;16.17;;
46439;SDS011;32138;50.966;6.968;2023-05-10T05:55:04;20.13;;;14.18;;
46439;SDS011;32138;50.966;6.968;2023-05-10T05:56:05;20.48;;;15.32;;
46439;SDS011;32138;50.966;6.968;2023-05-10T05:57:06;27.48;;;16.60;;
46439;SDS011;32138;50.966;6.968;2023-05-10T05:58:07;22.80;;;13.02;;
46439;SDS011;32138;50.966;6.968;2023-05-10T05:59:08;35.47;;;31.35;;
46439;SDS011;32138;50.966;6.968;2023-05-10T06:00:08;122.00;;;109.95;;
46439;SDS011;32138;50.966;6.968;2023-05-10T06:01:10;62.45;;;56.28;;
46439;SDS011;32138;50.966;6.968;2023-05-10T06:02:10;43.60;;;38.67;;
46439;SDS011;32138;50.966;6.968;2023-05-10T06:03:11;26.67;;;21.55;;
46439;SDS011;32138;50.966;6.968;2023-05-10T06:04:12;23.95;;;17.75;;
46439;SDS011;32138;50.966;6.968;2023-05-10T06:05:13;26.05;;;18.55;;
46439;SDS011;32138;50.966;6.968;2023-05-10T06:06:14;24.15;;;15.23;;
46439;SDS011;32138;50.966;6.968;2023-05-10T06:07:14;24.27;;;17.27;;
46439;SDS011;32138;50.966;6.968;2023-05-10T06:08:15;19.50;;;15.18;;
46439;SDS011;32138;50.966;6.968;2023-05-10T06:09:16;20.23;;;15.27;;
46439;SDS011;32138;50.966;6.968;2023-05-10T06:10:17;19.92;;;13.40;;
46439;SDS011;32138;50.966;6.968;2023-05-10T06:11:17;16.23;;;12.75;;
46439;SDS011;32138;50.966;6.968;2023-05-10T06:12:18;16.83;;;12.95;;
46439;SDS011;32138;50.966;6.968;2023-05-10T06:13:19;16.77;;;12.43;;
46439;SDS011;32138;50.966;6.968;2023-05-10T06:14:20;20.48;;;14.68;;
46439;SDS011;32138;50.966;6.968;2023-05-10T06:15:21;19.13;;;12.57;;
46439;SDS011;32138;50.966;6.968;2023-05-10T06:16:22;19.42;;;13.07;;
46439;SDS011;32138;50.966;6.968;2023-05-10T06:17:23;20.48;;;14.38;;
46439;SDS011;32138;50.966;6.968;2023-05-10T06:18:24;17.15;;;11.75;;
46439;SDS011;32138;50.966;6.968;2023-05-10T06:19:25;17.80;;;13.25;;
46439;SDS011;32138;50.966;6.968;2023-05-10T06:20:26;20.20;;;14.15;;
46439;SDS011;32138;50.966;6.968;2023-05-10T06:21:27;21.58;;;14.70;;
46439;SDS011;32138;50.966;6.968;2023-05-10T06:22:27;15.68;;;13.50;;
46439;SDS011;32138;50.966;6.968;2023-05-10T06:23:28;20.58;;;16.40;;
46439;SDS011;32138;50.966;6.968;2023-05-10T06:24:29;18.45;;;13.32;;
46439;SDS011;32138;50.966;6.968;2023-05-10T06:25:30;20.30;;;12.13;;
46439;SDS011;32138;50.966;6.968;2023-05-10T06:26:30;16.20;;;11.70;;
46439;SDS011;32138;50.966;6.968;2023-05-10T06:27:31;15.73;;;12.48;;
46439;SDS011;32138;50.966;6.968;2023-05-10T06:28:32;18.60;;;12.63;;
46439;SDS011;32138;50.966;6.968;2023-05-10T06:29:33;17.15;;;11.10;;